sensor_id;sensor_type;location;lat;lon;timestamp;temperature;humidity
42365;DHT22;28498;54.400;18.566;2024-01-06T00:01:32;-3.50;99.90
42365;DHT22;28498;54.400;18.566;2024-01-06T00:03:59;-3.40;99.90
42365;DHT22;28498;54.400;18.566;2024-01-06T00:06:26;-3.40;99.90
42365;DHT22;28498;54.400;18.566;2024-01-06T00:08:53;-3.50;99.90
42365;DHT22;28498;54.400;18.566;2024-01-06T00:11:22;-3.40;99.90
42365;DHT22;28498;54.400;18.566;2024-01-06T00:13:49;-3.40;99.90
42365;DHT22;28498;54.400;18.566;2024-01-06T00:16:17;-3.50;99.90
42365;DHT22;28498;54.400;18.566;2024-01-06T00:18:49;-3.50;99.90
42365;DHT22;28498;54.400;18.566;2024-01-06T00:21:16;-3.50;99.90
42365;DHT22;28498;54.400;18.566;2024-01-06T00:23:43;-3.50;99.90
42365;DHT22;28498;54.400;18.566;2024-01-06T00:26:10;-3.50;99.90
42365;DHT22;28498;54.400;18.566;2024-01-06T00:28:38;-3.40;99.90
42365;DHT22;28498;54.400;18.566;2024-01-06T00:31:06;-3.30;99.90
42365;DHT22;28498;54.400;18.566;2024-01-06T00:33:33;-3.20;99.90
42365;DHT22;28498;54.400;18.566;2024-01-06T00:36:01;-3.10;99.90
42365;DHT22;28498;54.400;18.566;2024-01-06T00:38:27;-3.20;99.90
42365;DHT22;28498;54.400;18.566;2024-01-06T00:40:54;-3.30;99.90
42365;DHT22;28498;54.400;18.566;2024-01-06T00:43:22;-2.90;99.90
42365;DHT22;28498;54.400;18.566;2024-01-06T00:45:49;-3.20;99.90
42365;DHT22;28498;54.400;18.566;2024-01-06T00:48:16;-3.10;99.90
42365;DHT22;28498;54.400;18.566;2024-01-06T00:50:44;-3.00;99.90
42365;DHT22;28498;54.400;18.566;2024-01-06T00:53:11;-3.00;99.90
42365;DHT22;28498;54.400;18.566;2024-01-06T00:55:38;-3.10;99.90
42365;DHT22;28498;54.400;18.566;2024-01-06T00:58:06;-3.00;99.90
42365;DHT22;28498;54.400;18.566;2024-01-06T01:00:33;-3.00;99.90
42365;DHT22;28498;54.400;18.566;2024-01-06T01:03:00;-3.00;99.90
42365;DHT22;28498;54.400;18.566;2024-01-06T01:05:27;-3.00;99.90
42365;DHT22;28498;54.400;18.566;2024-01-06T01:07:54;-3.10;99.90
42365;DHT22;28498;54.400;18.566;2024-01-06T01:10:21;-3.10;99.90
42365;DHT22;28498;54.400;18.566;2024-01-06T01:12:48;-2.70;99.90
42365;DHT22;28498;54.400;18.566;2024-01-06T01:15:16;-3.10;99.90
42365;DHT22;28498;54.400;18.566;2024-01-06T01:17:43;-3.30;99.90
42365;DHT22;28498;54.400;18.566;2024-01-06T01:20:11;-3.10;99.90
42365;DHT22;28498;54.400;18.566;2024-01-06T01:22:38;-3.10;99.90
42365;DHT22;28498;54.400;18.566;2024-01-06T01:25:05;-3.00;99.90
42365;DHT22;28498;54.400;18.566;2024-01-06T01:27:34;-3.00;99.90
42365;DHT22;28498;54.400;18.566;2024-01-06T01:30:01;-2.60;99.90
42365;DHT22;28498;54.400;18.566;2024-01-06T01:35:14;-3.00;99.90
42365;DHT22;28498;54.400;18.566;2024-01-06T01:37:41;-3.00;99.90
42365;DHT22;28498;54.400;18.566;2024-01-06T01:40:09;-2.80;99.90
42365;DHT22;28498;54.400;18.566;2024-01-06T01:42:36;-2.90;99.90
42365;DHT22;28498;54.400;18.566;2024-01-06T01:45:05;-2.80;99.90
42365;DHT22;28498;54.400;18.566;2024-01-06T01:47:32;-2.80;99.90
42365;DHT22;28498;54.400;18.566;2024-01-06T01:50:00;-2.80;99.90
42365;DHT22;28498;54.400;18.566;2024-01-06T01:52:28;-2.80;99.90
42365;DHT22;28498;54.400;18.566;2024-01-06T01:54:55;-2.00;99.90
42365;DHT22;28498;54.400;18.566;2024-01-06T01:57:24;-2.50;99.90
42365;DHT22;28498;54.400;18.566;2024-01-06T01:59:52;-2.40;99.90
42365;DHT22;28498;54.400;18.566;2024-01-06T02:02:20;-2.20;99.90
42365;DHT22;28498;54.400;18.566;2024-01-06T02:04:48;-2.20;99.90
42365;DHT22;28498;54.400;18.566;2024-01-06T02:07:15;-2.00;99.90
42365;DHT22;28498;54.400;18.566;2024-01-06T02:09:42;-2.00;99.90
42365;DHT22;28498;54.400;18.566;2024-01-06T02:12:09;-1.90;99.90
42365;DHT22;28498;54.400;18.566;2024-01-06T02:14:36;-1.40;99.90
42365;DHT22;28498;54.400;18.566;2024-01-06T02:17:03;-2.00;99.90
42365;DHT22;28498;54.400;18.566;2024-01-06T02:19:30;-2.10;99.90
42365;DHT22;28498;54.400;18.566;2024-01-06T02:21:57;-2.10;99.90
42365;DHT22;28498;54.400;18.566;2024-01-06T02:24:24;-2.10;99.90
42365;DHT22;28498;54.400;18.566;2024-01-06T02:26:51;-2.10;99.90
42365;DHT22;28498;54.400;18.566;2024-01-06T02:29:18;-2.20;99.90
42365;DHT22;28498;54.400;18.566;2024-01-06T02:31:45;-2.20;99.90
42365;DHT22;28498;54.400;18.566;2024-01-06T02:34:13;-2.20;99.90
42365;DHT22;28498;54.400;18.566;2024-01-06T02:36:40;-2.10;99.90
42365;DHT22;28498;54.400;18.566;2024-01-06T02:39:07;-2.00;99.90
42365;DHT22;28498;54.400;18.566;2024-01-06T02:41:34;-2.00;99.90
42365;DHT22;28498;54.400;18.566;2024-01-06T02:44:03;-1.90;99.90
42365;DHT22;28498;54.400;18.566;2024-01-06T02:46:30;-1.90;99.90
42365;DHT22;28498;54.400;18.566;2024-01-06T02:48:57;-1.90;99.90
42365;DHT22;28498;54.400;18.566;2024-01-06T02:51:24;-1.90;99.90
42365;DHT22;28498;54.400;18.566;2024-01-06T02:53:51;-1.80;99.90
42365;DHT22;28498;54.400;18.566;2024-01-06T02:56:18;-1.80;99.90
42365;DHT22;28498;54.400;18.566;2024-01-06T02:58:46;-1.70;99.90
42365;DHT22;28498;54.400;18.566;2024-01-06T03:01:12;-1.30;99.90
42365;DHT22;28498;54.400;18.566;2024-01-06T03:03:40;-1.50;99.90
42365;DHT22;28498;54.400;18.566;2024-01-06T03:06:07;-1.40;99.90
42365;DHT22;28498;54.400;18.566;2024-01-06T03:08:34;-1.40;99.90
42365;DHT22;28498;54.400;18.566;2024-01-06T03:11:02;-1.40;99.90
42365;DHT22;28498;54.400;18.566;2024-01-06T03:13:30;-1.30;99.90
42365;DHT22;28498;54.400;18.566;2024-01-06T03:15:57;-1.20;99.90
42365;DHT22;28498;54.400;18.566;2024-01-06T03:18:24;-1.20;99.90
42365;DHT22;28498;54.400;18.566;2024-01-06T03:20:52;-1.20;99.90
42365;DHT22;28498;54.400;18.566;2024-01-06T03:23:19;-1.20;99.90
42365;DHT22;28498;54.400;18.566;2024-01-06T03:25:46;-1.20;99.90
42365;DHT22;28498;54.400;18.566;2024-01-06T03:28:13;-1.10;99.90
42365;DHT22;28498;54.400;18.566;2024-01-06T03:30:40;-1.00;99.90
42365;DHT22;28498;54.400;18.566;2024-01-06T03:33:07;-0.90;99.90
42365;DHT22;28498;54.400;18.566;2024-01-06T03:35:34;-0.90;99.90
42365;DHT22;28498;54.400;18.566;2024-01-06T03:38:01;-1.00;99.90
42365;DHT22;28498;54.400;18.566;2024-01-06T03:40:28;-1.00;99.90
42365;DHT22;28498;54.400;18.566;2024-01-06T03:42:55;-1.00;99.90
42365;DHT22;28498;54.400;18.566;2024-01-06T03:45:23;-1.10;99.90
42365;DHT22;28498;54.400;18.566;2024-01-06T03:47:50;-1.00;99.90
42365;DHT22;28498;54.400;18.566;2024-01-06T03:50:17;-1.00;99.90
42365;DHT22;28498;54.400;18.566;2024-01-06T03:52:44;-1.00;99.90
42365;DHT22;28498;54.400;18.566;2024-01-06T03:55:11;-1.00;99.90
42365;DHT22;28498;54.400;18.566;2024-01-06T03:57:39;-1.10;99.90
42365;DHT22;28498;54.400;18.566;2024-01-06T04:00:06;-1.10;99.90
42365;DHT22;28498;54.400;18.566;2024-01-06T04:02:34;-1.10;99.90
42365;DHT22;28498;54.400;18.566;2024-01-06T04:05:01;-1.10;99.90
42365;DHT22;28498;54.400;18.566;2024-01-06T04:07:28;-1.00;99.90
42365;DHT22;28498;54.400;18.566;2024-01-06T04:09:55;-1.20;99.90
42365;DHT22;28498;54.400;18.566;2024-01-06T04:12:22;-1.20;99.90
42365;DHT22;28498;54.400;18.566;2024-01-06T04:14:50;-1.20;99.90
42365;DHT22;28498;54.400;18.566;2024-01-06T04:17:17;-1.10;99.90
42365;DHT22;28498;54.400;18.566;2024-01-06T04:19:44;-1.20;99.90
42365;DHT22;28498;54.400;18.566;2024-01-06T04:22:11;-1.10;99.90
42365;DHT22;28498;54.400;18.566;2024-01-06T04:24:38;-1.20;99.90
42365;DHT22;28498;54.400;18.566;2024-01-06T04:27:07;-1.20;99.90
42365;DHT22;28498;54.400;18.566;2024-01-06T04:29:35;-1.20;99.90
42365;DHT22;28498;54.400;18.566;2024-01-06T04:32:02;-1.30;99.90
42365;DHT22;28498;54.400;18.566;2024-01-06T04:34:29;-1.20;99.90
42365;DHT22;28498;54.400;18.566;2024-01-06T04:36:56;-1.30;99.90
42365;DHT22;28498;54.400;18.566;2024-01-06T04:39:23;-1.30;99.90
42365;DHT22;28498;54.400;18.566;2024-01-06T04:41:50;-1.30;99.90
42365;DHT22;28498;54.400;18.566;2024-01-06T04:44:20;-1.30;99.90
42365;DHT22;28498;54.400;18.566;2024-01-06T04:46:48;-1.30;99.90
42365;DHT22;28498;54.400;18.566;2024-01-06T04:49:15;-1.30;99.90
42365;DHT22;28498;54.400;18.566;2024-01-06T04:51:42;-0.90;99.90
42365;DHT22;28498;54.400;18.566;2024-01-06T04:54:10;-1.40;99.90
42365;DHT22;28498;54.400;18.566;2024-01-06T04:56:37;-1.50;99.90
42365;DHT22;28498;54.400;18.566;2024-01-06T04:59:04;-1.50;99.90
42365;DHT22;28498;54.400;18.566;2024-01-06T05:01:31;-1.30;99.90
42365;DHT22;28498;54.400;18.566;2024-01-06T05:03:58;-1.40;99.90
42365;DHT22;28498;54.400;18.566;2024-01-06T05:06:26;-1.50;99.90
42365;DHT22;28498;54.400;18.566;2024-01-06T05:08:53;-1.50;99.90
42365;DHT22;28498;54.400;18.566;2024-01-06T05:11:20;-1.50;99.90
42365;DHT22;28498;54.400;18.566;2024-01-06T05:13:47;-1.50;99.90
42365;DHT22;28498;54.400;18.566;2024-01-06T05:16:14;-1.50;99.90
42365;DHT22;28498;54.400;18.566;2024-01-06T05:18:41;-1.50;99.90
42365;DHT22;28498;54.400;18.566;2024-01-06T05:21:08;-1.50;99.90
42365;DHT22;28498;54.400;18.566;2024-01-06T05:23:35;-1.50;99.90
42365;DHT22;28498;54.400;18.566;2024-01-06T05:26:02;-1.50;99.90
42365;DHT22;28498;54.400;18.566;2024-01-06T05:28:29;-1.60;99.90
42365;DHT22;28498;54.400;18.566;2024-01-06T05:30:59;-1.60;99.90
42365;DHT22;28498;54.400;18.566;2024-01-06T05:33:26;-1.60;99.90
42365;DHT22;28498;54.400;18.566;2024-01-06T05:35:53;-1.60;99.90
42365;DHT22;28498;54.400;18.566;2024-01-06T05:38:21;-1.50;99.90
42365;DHT22;28498;54.400;18.566;2024-01-06T05:40:48;-1.50;99.90
42365;DHT22;28498;54.400;18.566;2024-01-06T05:43:15;-1.50;99.90
42365;DHT22;28498;54.400;18.566;2024-01-06T05:45:42;-1.50;99.90
42365;DHT22;28498;54.400;18.566;2024-01-06T05:48:10;-1.40;99.90
42365;DHT22;28498;54.400;18.566;2024-01-06T05:50:38;-1.40;99.90
42365;DHT22;28498;54.400;18.566;2024-01-06T05:53:08;-1.50;99.90
42365;DHT22;28498;54.400;18.566;2024-01-06T05:55:36;-1.50;99.90
42365;DHT22;28498;54.400;18.566;2024-01-06T05:58:03;-1.60;99.90
42365;DHT22;28498;54.400;18.566;2024-01-06T06:00:30;-1.60;99.90
42365;DHT22;28498;54.400;18.566;2024-01-06T06:02:58;-1.70;99.90
42365;DHT22;28498;54.400;18.566;2024-01-06T06:05:25;-1.70;99.90
42365;DHT22;28498;54.400;18.566;2024-01-06T06:07:53;-1.80;99.90
42365;DHT22;28498;54.400;18.566;2024-01-06T06:10:21;-1.80;99.90
42365;DHT22;28498;54.400;18.566;2024-01-06T06:12:48;-1.90;99.90
42365;DHT22;28498;54.400;18.566;2024-01-06T06:15:16;-1.90;99.90
42365;DHT22;28498;54.400;18.566;2024-01-06T06:17:45;-1.90;99.90
42365;DHT22;28498;54.400;18.566;2024-01-06T06:20:13;-1.90;99.90
42365;DHT22;28498;54.400;18.566;2024-01-06T06:22:41;-1.90;99.90
42365;DHT22;28498;54.400;18.566;2024-01-06T06:25:08;-1.80;99.90
42365;DHT22;28498;54.400;18.566;2024-01-06T06:27:35;-1.70;99.90
42365;DHT22;28498;54.400;18.566;2024-01-06T06:30:03;-1.60;99.90
42365;DHT22;28498;54.400;18.566;2024-01-06T06:32:30;-1.70;99.90
42365;DHT22;28498;54.400;18.566;2024-01-06T06:34:58;-1.60;99.90
42365;DHT22;28498;54.400;18.566;2024-01-06T06:37:25;-1.60;99.90
42365;DHT22;28498;54.400;18.566;2024-01-06T06:39:52;-1.60;99.90
42365;DHT22;28498;54.400;18.566;2024-01-06T06:42:19;-1.60;99.90
42365;DHT22;28498;54.400;18.566;2024-01-06T06:44:46;-1.60;99.90
42365;DHT22;28498;54.400;18.566;2024-01-06T06:47:13;-1.60;99.90
42365;DHT22;28498;54.400;18.566;2024-01-06T06:49:40;-1.60;99.90
42365;DHT22;28498;54.400;18.566;2024-01-06T06:52:08;-1.50;99.90
42365;DHT22;28498;54.400;18.566;2024-01-06T06:54:35;-1.60;99.90
42365;DHT22;28498;54.400;18.566;2024-01-06T06:57:02;-1.60;99.90
42365;DHT22;28498;54.400;18.566;2024-01-06T06:59:29;-1.60;99.90
42365;DHT22;28498;54.400;18.566;2024-01-06T07:01:57;-1.60;99.90
42365;DHT22;28498;54.400;18.566;2024-01-06T07:04:24;-1.60;99.90
42365;DHT22;28498;54.400;18.566;2024-01-06T07:06:52;-1.50;99.90
42365;DHT22;28498;54.400;18.566;2024-01-06T07:09:19;-1.70;99.90
42365;DHT22;28498;54.400;18.566;2024-01-06T07:11:50;-1.70;99.90
42365;DHT22;28498;54.400;18.566;2024-01-06T07:14:17;-1.70;99.90
42365;DHT22;28498;54.400;18.566;2024-01-06T07:16:44;-1.70;99.90
42365;DHT22;28498;54.400;18.566;2024-01-06T07:19:11;-1.60;99.90
42365;DHT22;28498;54.400;18.566;2024-01-06T07:21:39;-1.60;99.90
42365;DHT22;28498;54.400;18.566;2024-01-06T07:24:06;-1.60;99.90
42365;DHT22;28498;54.400;18.566;2024-01-06T07:30:20;-1.60;99.90
42365;DHT22;28498;54.400;18.566;2024-01-06T07:32:47;-1.30;99.90
42365;DHT22;28498;54.400;18.566;2024-01-06T07:35:16;-1.30;99.90
42365;DHT22;28498;54.400;18.566;2024-01-06T07:37:43;-1.10;99.90
42365;DHT22;28498;54.400;18.566;2024-01-06T07:40:11;-1.30;99.90
42365;DHT22;28498;54.400;18.566;2024-01-06T07:42:39;-1.20;99.90
42365;DHT22;28498;54.400;18.566;2024-01-06T07:45:07;-1.10;99.90
42365;DHT22;28498;54.400;18.566;2024-01-06T07:47:34;-1.30;99.90
42365;DHT22;28498;54.400;18.566;2024-01-06T07:50:01;-1.20;99.90
42365;DHT22;28498;54.400;18.566;2024-01-06T07:52:29;-1.20;99.90
42365;DHT22;28498;54.400;18.566;2024-01-06T07:54:56;-1.10;99.90
42365;DHT22;28498;54.400;18.566;2024-01-06T07:57:23;-1.20;99.90
42365;DHT22;28498;54.400;18.566;2024-01-06T07:59:50;-1.10;99.90
42365;DHT22;28498;54.400;18.566;2024-01-06T08:02:17;-0.90;99.90
42365;DHT22;28498;54.400;18.566;2024-01-06T08:04:45;-1.20;99.90
42365;DHT22;28498;54.400;18.566;2024-01-06T08:07:12;-1.10;99.90
42365;DHT22;28498;54.400;18.566;2024-01-06T08:09:40;-1.10;99.90
42365;DHT22;28498;54.400;18.566;2024-01-06T08:12:09;-1.10;99.90
42365;DHT22;28498;54.400;18.566;2024-01-06T08:14:36;-1.00;99.90
42365;DHT22;28498;54.400;18.566;2024-01-06T08:17:03;-0.90;99.90
42365;DHT22;28498;54.400;18.566;2024-01-06T08:19:31;-1.10;99.90
42365;DHT22;28498;54.400;18.566;2024-01-06T08:22:00;-1.10;99.90
42365;DHT22;28498;54.400;18.566;2024-01-06T08:24:27;-1.00;99.90
42365;DHT22;28498;54.400;18.566;2024-01-06T08:26:54;-1.00;99.90
42365;DHT22;28498;54.400;18.566;2024-01-06T08:29:21;-1.00;99.90
42365;DHT22;28498;54.400;18.566;2024-01-06T08:31:48;-0.90;99.90
42365;DHT22;28498;54.400;18.566;2024-01-06T08:34:18;-0.80;99.90
42365;DHT22;28498;54.400;18.566;2024-01-06T08:36:46;-0.80;99.90
42365;DHT22;28498;54.400;18.566;2024-01-06T08:39:13;-0.80;99.90
42365;DHT22;28498;54.400;18.566;2024-01-06T08:45:28;-0.70;99.90
42365;DHT22;28498;54.400;18.566;2024-01-06T08:47:55;-0.60;99.90
42365;DHT22;28498;54.400;18.566;2024-01-06T08:50:23;-0.60;99.90
42365;DHT22;28498;54.400;18.566;2024-01-06T08:52:50;-0.50;99.90
42365;DHT22;28498;54.400;18.566;2024-01-06T08:58:57;-0.40;99.90
42365;DHT22;28498;54.400;18.566;2024-01-06T09:01:25;-0.50;99.90
42365;DHT22;28498;54.400;18.566;2024-01-06T09:03:52;-0.40;99.90
42365;DHT22;28498;54.400;18.566;2024-01-06T09:06:19;-0.50;99.90
42365;DHT22;28498;54.400;18.566;2024-01-06T09:08:46;-0.50;99.90
42365;DHT22;28498;54.400;18.566;2024-01-06T09:11:13;-0.10;99.90
42365;DHT22;28498;54.400;18.566;2024-01-06T09:13:40;-0.50;99.90
42365;DHT22;28498;54.400;18.566;2024-01-06T09:16:07;-0.30;99.90
42365;DHT22;28498;54.400;18.566;2024-01-06T09:18:35;-0.40;99.90
42365;DHT22;28498;54.400;18.566;2024-01-06T09:21:02;-0.40;99.90
42365;DHT22;28498;54.400;18.566;2024-01-06T09:23:30;-0.30;99.90
42365;DHT22;28498;54.400;18.566;2024-01-06T09:25:58;-0.20;99.90
42365;DHT22;28498;54.400;18.566;2024-01-06T09:28:25;-0.30;99.90
42365;DHT22;28498;54.400;18.566;2024-01-06T09:30:52;-0.30;99.90
42365;DHT22;28498;54.400;18.566;2024-01-06T09:33:23;-0.30;99.90
42365;DHT22;28498;54.400;18.566;2024-01-06T09:35:50;-0.30;99.90
42365;DHT22;28498;54.400;18.566;2024-01-06T09:38:18;-0.20;99.90
42365;DHT22;28498;54.400;18.566;2024-01-06T09:40:45;-0.30;99.90
42365;DHT22;28498;54.400;18.566;2024-01-06T09:43:12;-0.20;99.90
42365;DHT22;28498;54.400;18.566;2024-01-06T09:45:39;-0.10;99.90
42365;DHT22;28498;54.400;18.566;2024-01-06T09:48:13;-0.10;99.90
42365;DHT22;28498;54.400;18.566;2024-01-06T09:50:42;-0.10;99.90
42365;DHT22;28498;54.400;18.566;2024-01-06T09:53:11;-0.20;99.90
42365;DHT22;28498;54.400;18.566;2024-01-06T09:55:38;-0.10;99.90
42365;DHT22;28498;54.400;18.566;2024-01-06T09:58:06;-0.10;99.90
42365;DHT22;28498;54.400;18.566;2024-01-06T10:00:33;-0.10;99.90
42365;DHT22;28498;54.400;18.566;2024-01-06T10:03:00;-0.10;99.90
42365;DHT22;28498;54.400;18.566;2024-01-06T10:05:27;0.00;99.90
42365;DHT22;28498;54.400;18.566;2024-01-06T10:07:54;0.10;99.90
42365;DHT22;28498;54.400;18.566;2024-01-06T10:10:22;0.10;99.90
42365;DHT22;28498;54.400;18.566;2024-01-06T10:12:52;0.10;99.90
42365;DHT22;28498;54.400;18.566;2024-01-06T10:15:20;0.20;99.90
42365;DHT22;28498;54.400;18.566;2024-01-06T10:17:47;0.20;99.90
42365;DHT22;28498;54.400;18.566;2024-01-06T10:20:15;0.10;99.90
42365;DHT22;28498;54.400;18.566;2024-01-06T10:22:45;0.10;99.90
42365;DHT22;28498;54.400;18.566;2024-01-06T10:25:12;0.10;99.90
42365;DHT22;28498;54.400;18.566;2024-01-06T10:27:41;0.10;99.90
42365;DHT22;28498;54.400;18.566;2024-01-06T10:30:09;0.10;99.90
42365;DHT22;28498;54.400;18.566;2024-01-06T10:32:38;0.10;99.90
42365;DHT22;28498;54.400;18.566;2024-01-06T10:35:06;0.40;99.90
42365;DHT22;28498;54.400;18.566;2024-01-06T10:37:34;0.10;99.90
42365;DHT22;28498;54.400;18.566;2024-01-06T10:40:08;0.20;99.90
42365;DHT22;28498;54.400;18.566;2024-01-06T10:42:36;0.20;99.90
42365;DHT22;28498;54.400;18.566;2024-01-06T10:45:07;0.30;99.90
42365;DHT22;28498;54.400;18.566;2024-01-06T10:47:37;0.20;99.90
42365;DHT22;28498;54.400;18.566;2024-01-06T10:50:05;0.10;99.90
42365;DHT22;28498;54.400;18.566;2024-01-06T10:52:34;0.10;99.90
42365;DHT22;28498;54.400;18.566;2024-01-06T10:55:02;0.20;99.90
42365;DHT22;28498;54.400;18.566;2024-01-06T10:57:29;0.20;99.90
42365;DHT22;28498;54.400;18.566;2024-01-06T11:00:00;0.20;99.90
42365;DHT22;28498;54.400;18.566;2024-01-06T11:02:27;0.20;99.90
42365;DHT22;28498;54.400;18.566;2024-01-06T11:04:54;0.20;99.90
42365;DHT22;28498;54.400;18.566;2024-01-06T11:07:23;0.30;99.90
42365;DHT22;28498;54.400;18.566;2024-01-06T11:10:14;0.20;99.90
42365;DHT22;28498;54.400;18.566;2024-01-06T11:12:45;0.10;99.90
42365;DHT22;28498;54.400;18.566;2024-01-06T11:18:08;0.10;99.90
42365;DHT22;28498;54.400;18.566;2024-01-06T11:20:35;0.10;99.90
42365;DHT22;28498;54.400;18.566;2024-01-06T11:23:19;0.10;99.90
42365;DHT22;28498;54.400;18.566;2024-01-06T11:25:50;0.30;99.90
42365;DHT22;28498;54.400;18.566;2024-01-06T11:28:17;0.20;99.90
42365;DHT22;28498;54.400;18.566;2024-01-06T11:30:45;0.20;99.90
42365;DHT22;28498;54.400;18.566;2024-01-06T11:33:13;0.10;99.90
42365;DHT22;28498;54.400;18.566;2024-01-06T11:35:40;0.20;99.90
42365;DHT22;28498;54.400;18.566;2024-01-06T11:38:07;0.10;99.90
42365;DHT22;28498;54.400;18.566;2024-01-06T11:40:36;0.20;99.90
42365;DHT22;28498;54.400;18.566;2024-01-06T11:45:34;0.20;99.90
42365;DHT22;28498;54.400;18.566;2024-01-06T11:48:06;0.20;99.90
42365;DHT22;28498;54.400;18.566;2024-01-06T11:50:39;0.20;99.90
42365;DHT22;28498;54.400;18.566;2024-01-06T11:53:07;0.20;99.90
42365;DHT22;28498;54.400;18.566;2024-01-06T11:55:39;0.20;99.90
42365;DHT22;28498;54.400;18.566;2024-01-06T11:58:06;0.20;99.90
42365;DHT22;28498;54.400;18.566;2024-01-06T12:00:34;0.20;99.90
42365;DHT22;28498;54.400;18.566;2024-01-06T12:03:03;0.10;99.90
42365;DHT22;28498;54.400;18.566;2024-01-06T12:05:30;0.30;99.90
42365;DHT22;28498;54.400;18.566;2024-01-06T12:08:02;0.40;99.90
42365;DHT22;28498;54.400;18.566;2024-01-06T12:10:32;0.50;99.90
42365;DHT22;28498;54.400;18.566;2024-01-06T12:13:00;0.30;99.90
42365;DHT22;28498;54.400;18.566;2024-01-06T12:15:31;0.30;99.90
42365;DHT22;28498;54.400;18.566;2024-01-06T12:18:03;0.20;99.90
42365;DHT22;28498;54.400;18.566;2024-01-06T12:24:21;0.20;99.90
42365;DHT22;28498;54.400;18.566;2024-01-06T12:26:49;0.10;99.90
42365;DHT22;28498;54.400;18.566;2024-01-06T12:29:17;0.20;99.90
42365;DHT22;28498;54.400;18.566;2024-01-06T12:31:44;0.10;99.90
42365;DHT22;28498;54.400;18.566;2024-01-06T12:34:12;0.00;99.90
42365;DHT22;28498;54.400;18.566;2024-01-06T12:36:41;0.00;99.90
42365;DHT22;28498;54.400;18.566;2024-01-06T12:39:12;0.00;99.90
42365;DHT22;28498;54.400;18.566;2024-01-06T12:41:43;0.00;99.90
42365;DHT22;28498;54.400;18.566;2024-01-06T12:44:10;0.00;99.90
42365;DHT22;28498;54.400;18.566;2024-01-06T12:46:37;0.00;99.90
42365;DHT22;28498;54.400;18.566;2024-01-06T12:49:04;0.00;99.90
42365;DHT22;28498;54.400;18.566;2024-01-06T12:51:31;0.10;99.90
42365;DHT22;28498;54.400;18.566;2024-01-06T12:53:58;0.00;99.90
42365;DHT22;28498;54.400;18.566;2024-01-06T12:56:25;0.00;99.90
42365;DHT22;28498;54.400;18.566;2024-01-06T12:58:52;0.00;99.90
42365;DHT22;28498;54.400;18.566;2024-01-06T13:01:19;-0.10;99.90
42365;DHT22;28498;54.400;18.566;2024-01-06T13:03:47;-0.10;99.90
42365;DHT22;28498;54.400;18.566;2024-01-06T13:06:14;-0.20;99.90
42365;DHT22;28498;54.400;18.566;2024-01-06T13:08:43;-0.20;99.90
42365;DHT22;28498;54.400;18.566;2024-01-06T13:11:10;-0.20;99.90
42365;DHT22;28498;54.400;18.566;2024-01-06T13:13:37;-0.10;99.90
42365;DHT22;28498;54.400;18.566;2024-01-06T13:16:05;0.00;99.90
42365;DHT22;28498;54.400;18.566;2024-01-06T13:18:33;-0.20;99.90
42365;DHT22;28498;54.400;18.566;2024-01-06T13:21:00;-0.10;99.90
42365;DHT22;28498;54.400;18.566;2024-01-06T13:23:28;-0.20;99.90
42365;DHT22;28498;54.400;18.566;2024-01-06T13:25:55;-0.20;99.90
42365;DHT22;28498;54.400;18.566;2024-01-06T13:28:24;-0.20;99.90
42365;DHT22;28498;54.400;18.566;2024-01-06T13:30:51;-0.20;99.90
42365;DHT22;28498;54.400;18.566;2024-01-06T13:33:19;-0.20;99.90
42365;DHT22;28498;54.400;18.566;2024-01-06T13:35:47;-0.20;99.90
42365;DHT22;28498;54.400;18.566;2024-01-06T13:38:14;-0.20;99.90
42365;DHT22;28498;54.400;18.566;2024-01-06T13:40:43;-0.20;99.90
42365;DHT22;28498;54.400;18.566;2024-01-06T13:43:10;-0.10;99.90
42365;DHT22;28498;54.400;18.566;2024-01-06T13:45:43;-0.20;99.90
42365;DHT22;28498;54.400;18.566;2024-01-06T13:48:14;-0.20;99.90
42365;DHT22;28498;54.400;18.566;2024-01-06T13:50:41;-0.20;99.90
42365;DHT22;28498;54.400;18.566;2024-01-06T13:53:10;-0.20;99.90
42365;DHT22;28498;54.400;18.566;2024-01-06T13:55:37;-0.20;99.90
42365;DHT22;28498;54.400;18.566;2024-01-06T13:58:04;-0.20;99.90
42365;DHT22;28498;54.400;18.566;2024-01-06T14:00:31;-0.30;99.90
42365;DHT22;28498;54.400;18.566;2024-01-06T14:02:59;-0.30;99.90
42365;DHT22;28498;54.400;18.566;2024-01-06T14:05:26;-0.30;99.90
42365;DHT22;28498;54.400;18.566;2024-01-06T14:07:54;-0.30;99.90
42365;DHT22;28498;54.400;18.566;2024-01-06T14:10:21;-0.30;99.90
42365;DHT22;28498;54.400;18.566;2024-01-06T14:12:48;-0.30;99.90
42365;DHT22;28498;54.400;18.566;2024-01-06T14:15:15;-0.30;99.90
42365;DHT22;28498;54.400;18.566;2024-01-06T14:17:42;-0.40;99.90
42365;DHT22;28498;54.400;18.566;2024-01-06T14:20:17;-0.30;99.90
42365;DHT22;28498;54.400;18.566;2024-01-06T14:22:47;-0.30;99.90
42365;DHT22;28498;54.400;18.566;2024-01-06T14:25:16;-0.30;99.90
42365;DHT22;28498;54.400;18.566;2024-01-06T14:27:46;-0.30;99.90
42365;DHT22;28498;54.400;18.566;2024-01-06T14:30:14;-0.30;99.90
42365;DHT22;28498;54.400;18.566;2024-01-06T14:32:42;-0.30;99.90
42365;DHT22;28498;54.400;18.566;2024-01-06T14:35:09;-0.30;99.90
42365;DHT22;28498;54.400;18.566;2024-01-06T14:37:41;-0.20;99.90
42365;DHT22;28498;54.400;18.566;2024-01-06T14:40:08;-0.20;99.90
42365;DHT22;28498;54.400;18.566;2024-01-06T14:42:36;-0.20;99.90
42365;DHT22;28498;54.400;18.566;2024-01-06T14:45:03;-0.20;99.90
42365;DHT22;28498;54.400;18.566;2024-01-06T14:47:31;-0.20;99.90
42365;DHT22;28498;54.400;18.566;2024-01-06T14:49:59;-0.20;99.90
42365;DHT22;28498;54.400;18.566;2024-01-06T14:52:26;-0.10;99.90
42365;DHT22;28498;54.400;18.566;2024-01-06T14:54:55;0.30;99.90
42365;DHT22;28498;54.400;18.566;2024-01-06T14:57:22;0.10;99.90
42365;DHT22;28498;54.400;18.566;2024-01-06T14:59:49;0.20;99.90
42365;DHT22;28498;54.400;18.566;2024-01-06T15:02:16;0.20;99.90
42365;DHT22;28498;54.400;18.566;2024-01-06T15:04:43;0.00;99.90
42365;DHT22;28498;54.400;18.566;2024-01-06T15:07:10;0.00;99.90
42365;DHT22;28498;54.400;18.566;2024-01-06T15:09:38;-0.10;99.90
42365;DHT22;28498;54.400;18.566;2024-01-06T15:12:07;-0.10;99.90
42365;DHT22;28498;54.400;18.566;2024-01-06T15:14:34;-0.10;99.90
42365;DHT22;28498;54.400;18.566;2024-01-06T15:17:01;-0.10;99.90
42365;DHT22;28498;54.400;18.566;2024-01-06T15:19:28;-0.10;99.90
42365;DHT22;28498;54.400;18.566;2024-01-06T15:21:58;0.00;99.90
42365;DHT22;28498;54.400;18.566;2024-01-06T15:24:25;0.00;99.90
42365;DHT22;28498;54.400;18.566;2024-01-06T15:26:53;-0.10;99.90
42365;DHT22;28498;54.400;18.566;2024-01-06T15:29:20;0.00;99.90
42365;DHT22;28498;54.400;18.566;2024-01-06T15:31:47;-0.10;99.90
42365;DHT22;28498;54.400;18.566;2024-01-06T15:34:15;0.00;99.90
42365;DHT22;28498;54.400;18.566;2024-01-06T15:36:42;0.00;99.90
42365;DHT22;28498;54.400;18.566;2024-01-06T15:39:09;0.00;99.90
42365;DHT22;28498;54.400;18.566;2024-01-06T15:41:36;0.10;99.90
42365;DHT22;28498;54.400;18.566;2024-01-06T15:44:04;0.00;99.90
42365;DHT22;28498;54.400;18.566;2024-01-06T15:46:31;0.10;99.90